KBKL/BKL METAR and TAF weather

Enter ICAO airport designator
Station Type Date Time Source
KBKL METAR 2020/09/21 04:53 UTC NOAA

KBKL 210453Z AUTO 15006KT 10SM CLR 12/04 A3047 RMK AO2 SLP319 T01220039 401940083


Station Type Date Time Source
KBKL Decoded METAR 2020/09/21 04:53 UTC NOAA

CLEVELAND BURKE LAKEFRONT, OH, United States (KBKL) 41-32N 81-40W 184M
Sep 21, 2020 - 12:53 AM EDT / 2020.09.21 0453 UTC
Wind: from the SSE (150 degrees) at 7 MPH (6 KT):0
Visibility: 10 mile(s):0
Sky conditions: clear
Temperature: 54.0 F (12.2 C)
Dew Point: 39.0 F (3.9 C)
Relative Humidity: 56%
Pressure (altimeter): 30.47 in. Hg (1031 hPa)
ob: KBKL 210453Z AUTO 15006KT 10SM CLR 12/04 A3047 RMK AO2 SLP319 T01220039 401940083
cycle: 5

Station Type Date Time Source
KBKL TAF UTC NOAA

Error!

Example: see airport list